Time;durP1;ratioP1;P1;durP2;ratioP2;P2;SDS_P1;SDS_P2;PMS_P1;PMS_P2;Temp;Humidity;BMP_temperature;BMP_pressure;BME280_temperature;BME280_humidity;BME280_pressure;Samples;Min_cycle;Max_cycle;Signal;HPM_P1;HPM_P2
2021/06/25 00:02:06;;;;;;;4.00;3.60;;;16.70;99.90;;;;;;5039787;28;21236;-67
2021/06/25 00:04:32;;;;;;;4.90;4.47;;;16.70;99.90;;;;;;5043603;28;20192;-67
2021/06/25 00:07:00;;;;;;;4.40;4.03;;;16.70;99.90;;;;;;5034241;28;20303;-67
2021/06/25 00:09:26;;;;;;;4.20;3.80;;;16.60;99.90;;;;;;5023046;28;20777;-67
2021/06/25 00:11:51;;;;;;;4.63;4.00;;;16.60;99.90;;;;;;5040081;28;20714;-67
2021/06/25 00:14:21;;;;;;;4.13;3.83;;;16.60;99.90;;;;;;5041312;28;20208;-68
2021/06/25 00:16:47;;;;;;;4.17;3.83;;;16.60;99.90;;;;;;5040493;28;20364;-67
2021/06/25 00:19:13;;;;;;;4.60;4.23;;;16.50;99.90;;;;;;5041602;28;20677;-68
2021/06/25 00:21:38;;;;;;;4.83;4.43;;;16.50;99.90;;;;;;5030052;28;21149;-67
2021/06/25 00:24:05;;;;;;;5.07;4.57;;;16.40;99.90;;;;;;5040246;28;20199;-67
2021/06/25 00:26:30;;;;;;;5.97;4.10;;;16.40;99.90;;;;;;5017726;28;20224;-68
2021/06/25 00:28:56;;;;;;;4.77;4.37;;;16.30;99.90;;;;;;5035322;28;20662;-68
2021/06/25 00:31:21;;;;;;;5.00;4.53;;;16.30;99.90;;;;;;5023628;28;20216;-67
2021/06/25 00:33:47;;;;;;;4.57;4.17;;;16.20;99.90;;;;;;5038058;28;20559;-68
2021/06/25 00:36:12;;;;;;;4.87;4.37;;;16.20;99.90;;;;;;5024356;28;20247;-68
2021/06/25 00:38:38;;;;;;;4.50;4.20;;;16.10;99.90;;;;;;5040516;28;20312;-68
2021/06/25 00:41:03;;;;;;;4.90;4.50;;;16.10;99.90;;;;;;5022738;28;20218;-68
2021/06/25 00:43:29;;;;;;;5.23;4.77;;;16.10;99.90;;;;;;5042444;28;20200;-67
2021/06/25 00:45:54;;;;;;;5.63;5.03;;;16.00;99.90;;;;;;5028019;28;20229;-67
2021/06/25 00:48:20;;;;;;;5.33;4.83;;;16.00;99.90;;;;;;5018022;28;20201;-68
2021/06/25 00:50:46;;;;;;;5.40;4.90;;;16.00;99.90;;;;;;5021633;28;20215;-67
2021/06/25 00:53:11;;;;;;;5.67;5.17;;;15.90;99.90;;;;;;5036031;28;20185;-68
2021/06/25 00:55:43;;;;;;;5.43;4.93;;;15.90;99.90;;;;;;5027156;28;20228;-68
2021/06/25 00:58:19;;;;;;;4.90;4.50;;;15.80;99.90;;;;;;5010919;28;20204;-68
2021/06/25 01:00:48;;;;;;;5.37;4.87;;;15.80;99.90;;;;;;5015189;28;20868;-67
2021/06/25 01:03:15;;;;;;;5.30;4.80;;;15.70;99.90;;;;;;4998395;28;20628;-68
2021/06/25 01:05:41;;;;;;;6.80;5.20;;;15.60;99.90;;;;;;5022830;28;20654;-67
2021/06/25 01:08:08;;;;;;;6.77;5.80;;;15.70;99.90;;;;;;5036573;28;20727;-67
2021/06/25 01:10:35;;;;;;;5.80;5.10;;;15.60;99.90;;;;;;5042592;28;20645;-68
2021/06/25 01:13:01;;;;;;;5.77;5.20;;;15.60;99.90;;;;;;5038924;28;20638;-68
2021/06/25 01:15:26;;;;;;;5.60;5.10;;;15.60;99.90;;;;;;5042856;28;20721;-67
2021/06/25 01:17:54;;;;;;;5.40;4.90;;;15.50;99.90;;;;;;5037089;28;20200;-68
2021/06/25 01:20:26;;;;;;;6.37;5.20;;;15.50;99.90;;;;;;5039040;28;20219;-67
2021/06/25 01:22:52;;;;;;;5.27;4.80;;;15.50;99.90;;;;;;5027546;28;20635;-68
2021/06/25 01:25:18;;;;;;;7.57;5.30;;;15.50;99.90;;;;;;5030682;28;20834;-67
2021/06/25 01:27:49;;;;;;;6.60;6.00;;;15.50;99.90;;;;;;5034919;28;20292;-68
2021/06/25 01:30:19;;;;;;;5.93;5.43;;;15.40;99.90;;;;;;5041620;28;20646;-67
2021/06/25 01:32:45;;;;;;;6.80;6.20;;;15.40;99.90;;;;;;5038321;28;20649;-68
2021/06/25 01:35:12;;;;;;;5.93;5.43;;;15.30;99.90;;;;;;5032011;28;20772;-67
2021/06/25 01:37:38;;;;;;;5.73;5.23;;;15.30;99.90;;;;;;5040475;28;20751;-67
2021/06/25 01:40:09;;;;;;;6.50;5.90;;;15.20;99.90;;;;;;5037033;28;20653;-67
2021/06/25 01:42:37;;;;;;;5.73;5.23;;;15.20;99.90;;;;;;5032297;28;20721;-68
2021/06/25 01:45:11;;;;;;;6.10;5.50;;;15.20;99.90;;;;;;5010110;28;20622;-68
2021/06/25 01:47:38;;;;;;;6.83;5.60;;;15.20;99.90;;;;;;5020933;28;20618;-67
2021/06/25 01:50:11;;;;;;;6.70;6.10;;;15.20;99.90;;;;;;5041456;28;20669;-67
2021/06/25 01:52:45;;;;;;;7.97;6.73;;;15.10;99.90;;;;;;5031957;28;21230;-67
2021/06/25 01:55:11;;;;;;;6.73;6.13;;;15.10;99.90;;;;;;5034666;28;21188;-67
2021/06/25 01:57:37;;;;;;;7.83;6.50;;;15.10;99.90;;;;;;5022305;28;20634;-68
2021/06/25 02:00:04;;;;;;;6.40;5.83;;;15.00;99.90;;;;;;5043235;28;20668;-67
2021/06/25 02:02:30;;;;;;;7.47;6.77;;;15.00;99.90;;;;;;5037357;28;20606;-67
2021/06/25 02:04:55;;;;;;;6.83;6.20;;;15.00;99.90;;;;;;5037529;28;20629;-67
2021/06/25 02:07:21;;;;;;;6.47;5.87;;;15.00;99.90;;;;;;5037794;28;20738;-67
2021/06/25 02:09:49;;;;;;;8.00;7.23;;;15.00;99.90;;;;;;5041772;28;20215;-67
2021/06/25 02:12:14;;;;;;;6.60;6.00;;;14.90;99.90;;;;;;5036634;28;20246;-67
2021/06/25 02:14:40;;;;;;;6.80;6.20;;;14.90;99.90;;;;;;5041170;28;20614;-67
2021/06/25 02:17:05;;;;;;;7.70;6.90;;;14.90;99.90;;;;;;5040165;28;20335;-68
2021/06/25 02:19:31;;;;;;;6.60;5.97;;;14.80;99.90;;;;;;5043272;28;20233;-67
2021/06/25 02:22:04;;;;;;;6.13;5.63;;;14.80;99.90;;;;;;5021730;28;20227;-68
2021/06/25 02:24:30;;;;;;;7.37;6.73;;;14.80;99.90;;;;;;5041659;28;20324;-68
2021/06/25 02:26:55;;;;;;;8.60;6.13;;;14.80;99.90;;;;;;5038410;28;20646;-67
2021/06/25 02:29:21;;;;;;;7.30;6.70;;;14.70;99.90;;;;;;5036644;28;20222;-68
2021/06/25 02:31:47;;;;;;;7.07;6.47;;;14.70;99.90;;;;;;5028929;28;20505;-68
2021/06/25 02:34:12;;;;;;;7.27;6.67;;;14.70;99.90;;;;;;5022141;28;20249;-68
2021/06/25 02:36:38;;;;;;;7.27;6.57;;;14.70;99.90;;;;;;5018078;28;20293;-67
2021/06/25 02:39:04;;;;;;;8.10;6.40;;;14.70;99.90;;;;;;5040421;28;20333;-67
2021/06/25 02:41:30;;;;;;;7.50;6.80;;;14.70;99.90;;;;;;5055499;28;20290;-67
2021/06/25 02:43:56;;;;;;;8.37;7.57;;;14.70;99.90;;;;;;5041323;28;20615;-68
2021/06/25 02:46:21;;;;;;;8.60;7.70;;;14.60;99.90;;;;;;5030120;28;20994;-67
2021/06/25 02:48:47;;;;;;;8.00;7.10;;;14.60;99.90;;;;;;5017608;28;20225;-68
2021/06/25 02:51:12;;;;;;;8.23;7.27;;;14.60;99.90;;;;;;5018462;28;20205;-68
2021/06/25 02:53:38;;;;;;;9.00;7.93;;;14.60;99.90;;;;;;5037691;28;20269;-68
2021/06/25 02:56:04;;;;;;;8.13;7.33;;;14.60;99.90;;;;;;5017615;28;20302;-69
2021/06/25 02:58:30;;;;;;;9.50;8.00;;;14.60;99.90;;;;;;5002272;28;20340;-68
2021/06/25 03:00:56;;;;;;;8.77;7.90;;;14.50;99.90;;;;;;5019855;28;20654;-68
2021/06/25 03:03:22;;;;;;;7.97;7.23;;;14.50;99.90;;;;;;4998369;28;20229;-68
2021/06/25 03:05:51;;;;;;;8.77;8.00;;;14.50;99.90;;;;;;5027589;28;20732;-68
2021/06/25 03:08:17;;;;;;;8.27;7.53;;;14.50;99.90;;;;;;5036359;28;20644;-68
2021/06/25 03:10:45;;;;;;;8.37;7.57;;;14.40;99.90;;;;;;5041382;28;21323;-68
2021/06/25 03:13:11;;;;;;;8.80;7.33;;;14.40;99.90;;;;;;5039274;28;20625;-68
2021/06/25 03:15:37;;;;;;;8.87;8.07;;;14.40;99.90;;;;;;5039379;28;20711;-68
2021/06/25 03:18:03;;;;;;;9.23;8.07;;;14.40;99.90;;;;;;5043994;28;20288;-68
2021/06/25 03:20:28;;;;;;;8.60;7.70;;;14.30;99.90;;;;;;5039699;28;20291;-68
2021/06/25 03:22:54;;;;;;;8.93;8.03;;;14.30;99.90;;;;;;5022642;28;20693;-68
2021/06/25 03:25:20;;;;;;;8.83;8.03;;;14.40;99.90;;;;;;5036343;28;20233;-68
2021/06/25 03:27:45;;;;;;;9.57;8.57;;;14.30;99.90;;;;;;5020492;28;20196;-69
2021/06/25 03:30:12;;;;;;;11.33;9.07;;;14.40;99.90;;;;;;5037918;28;20755;-67
2021/06/25 03:32:38;;;;;;;8.70;7.80;;;14.40;99.90;;;;;;5037439;28;20888;-69
2021/06/25 03:35:05;;;;;;;9.20;8.20;;;14.40;99.90;;;;;;5035166;28;20642;-68
2021/06/25 03:37:30;;;;;;;8.50;7.70;;;14.40;99.90;;;;;;5037453;28;20199;-68
2021/06/25 03:39:56;;;;;;;8.80;7.90;;;14.40;99.90;;;;;;5039620;28;20654;-68
2021/06/25 03:42:22;;;;;;;7.67;6.87;;;14.40;99.90;;;;;;5046135;28;20184;-69
2021/06/25 03:44:48;;;;;;;8.00;7.30;;;14.40;99.90;;;;;;5038027;28;20211;-68
2021/06/25 03:47:13;;;;;;;9.53;8.53;;;14.40;99.90;;;;;;5042743;28;20630;-69
2021/06/25 03:49:39;;;;;;;9.60;8.40;;;14.40;99.90;;;;;;5041003;28;20238;-68
2021/06/25 03:52:05;;;;;;;8.93;8.03;;;14.40;99.90;;;;;;5021524;28;20188;-68
2021/06/25 03:54:31;;;;;;;9.10;8.20;;;14.40;99.90;;;;;;5031451;28;20184;-69
2021/06/25 03:56:59;;;;;;;10.03;9.03;;;14.50;99.90;;;;;;5038277;28;20745;-69
2021/06/25 03:59:24;;;;;;;9.93;8.93;;;14.50;99.90;;;;;;5036045;28;20277;-68
2021/06/25 04:01:50;;;;;;;8.90;8.10;;;14.50;99.90;;;;;;5035288;28;20622;-68
2021/06/25 04:04:15;;;;;;;9.20;8.30;;;14.50;99.90;;;;;;5040713;28;20275;-68
2021/06/25 04:06:41;;;;;;;9.90;8.27;;;14.50;99.90;;;;;;5040235;28;20216;-68
2021/06/25 04:09:06;;;;;;;9.10;8.20;;;14.50;99.90;;;;;;5041327;28;20330;-68
2021/06/25 04:11:33;;;;;;;9.00;8.10;;;14.50;99.90;;;;;;5025385;28;20181;-68
2021/06/25 04:13:58;;;;;;;10.00;9.00;;;14.60;99.90;;;;;;5015494;28;20196;-68
2021/06/25 04:16:24;;;;;;;9.23;8.33;;;14.60;99.90;;;;;;5041995;28;21050;-69
2021/06/25 04:18:49;;;;;;;10.40;9.40;;;14.60;99.90;;;;;;5042009;28;20219;-68
2021/06/25 04:21:15;;;;;;;9.33;8.43;;;14.70;99.90;;;;;;5037495;28;20227;-68
2021/06/25 04:23:41;;;;;;;10.50;9.03;;;14.70;99.90;;;;;;5040816;28;20609;-68
2021/06/25 04:26:06;;;;;;;9.87;8.97;;;14.70;99.90;;;;;;5027199;28;20658;-68
2021/06/25 04:28:32;;;;;;;10.13;9.17;;;14.80;99.90;;;;;;5024331;28;20834;-68
2021/06/25 04:30:58;;;;;;;11.10;9.87;;;14.80;99.90;;;;;;5026097;28;20225;-68
2021/06/25 04:33:24;;;;;;;11.03;9.93;;;14.80;99.90;;;;;;5002510;28;20193;-68
2021/06/25 04:35:51;;;;;;;10.30;9.30;;;14.80;99.90;;;;;;5026261;28;20231;-68
2021/06/25 04:38:17;;;;;;;10.67;9.67;;;14.80;99.90;;;;;;5036806;28;20626;-69
2021/06/25 04:40:43;;;;;;;10.93;9.83;;;14.90;99.90;;;;;;5020887;28;20729;-68
2021/06/25 04:43:11;;;;;;;9.90;9.00;;;14.90;99.90;;;;;;5039318;28;20628;-69
2021/06/25 04:45:38;;;;;;;11.00;10.00;;;14.90;99.90;;;;;;5037030;28;20654;-69
2021/06/25 04:48:05;;;;;;;12.97;9.70;;;14.90;99.90;;;;;;5034189;28;20729;-69
2021/06/25 04:50:31;;;;;;;12.27;9.90;;;14.90;99.90;;;;;;5026729;28;20913;-69
2021/06/25 04:52:57;;;;;;;13.23;11.50;;;15.00;99.90;;;;;;5038181;28;20622;-69
2021/06/25 04:55:22;;;;;;;12.20;10.93;;;15.00;99.90;;;;;;5026331;28;21247;-69
2021/06/25 04:57:53;;;;;;;13.20;11.63;;;15.10;99.90;;;;;;5023394;28;20203;-69
2021/06/25 05:00:20;;;;;;;12.90;11.70;;;15.10;99.90;;;;;;5025261;28;20581;-69
2021/06/25 05:02:46;;;;;;;13.20;11.37;;;15.10;99.90;;;;;;5004236;28;20699;-68
2021/06/25 05:05:12;;;;;;;12.53;11.00;;;15.20;99.90;;;;;;5019864;28;21289;-69
2021/06/25 05:07:38;;;;;;;11.00;9.93;;;15.20;99.90;;;;;;5030956;28;20195;-69
2021/06/25 05:10:04;;;;;;;13.20;10.43;;;15.30;99.90;;;;;;5031100;28;20658;-69
2021/06/25 05:12:33;;;;;;;11.63;10.47;;;15.30;99.90;;;;;;5034402;28;20211;-69
2021/06/25 05:14:58;;;;;;;12.57;11.10;;;15.30;99.90;;;;;;5032070;28;21404;-69
2021/06/25 05:17:27;;;;;;;11.13;9.90;;;15.40;99.90;;;;;;5017764;28;20622;-68
2021/06/25 05:19:53;;;;;;;11.87;10.67;;;15.40;99.90;;;;;;5016892;28;20220;-69
2021/06/25 05:22:19;;;;;;;12.50;10.80;;;15.50;99.90;;;;;;5023629;28;20680;-70
2021/06/25 05:24:44;;;;;;;11.70;10.47;;;15.50;99.90;;;;;;5022575;28;20188;-67
2021/06/25 05:27:10;;;;;;;13.03;11.47;;;15.50;99.90;;;;;;5038300;28;20831;-67
2021/06/25 05:29:35;;;;;;;12.23;10.97;;;15.60;99.90;;;;;;5022637;28;20598;-68
2021/06/25 05:32:02;;;;;;;11.80;10.60;;;15.60;99.90;;;;;;5038936;28;20200;-68
2021/06/25 05:34:27;;;;;;;12.50;11.30;;;15.60;99.90;;;;;;5042041;28;20292;-68
2021/06/25 05:36:54;;;;;;;12.90;11.50;;;15.70;99.90;;;;;;5024835;28;20651;-72
2021/06/25 05:39:19;;;;;;;12.00;10.67;;;15.70;99.90;;;;;;5024980;28;20652;-68
2021/06/25 05:41:45;;;;;;;12.33;10.60;;;15.80;99.90;;;;;;5026175;28;20742;-69
2021/06/25 05:44:11;;;;;;;12.73;10.40;;;15.80;99.90;;;;;;5024299;28;20207;-68
2021/06/25 05:46:36;;;;;;;10.87;9.60;;;15.90;99.90;;;;;;5036748;28;20224;-68
2021/06/25 05:49:02;;;;;;;10.97;9.87;;;15.80;99.90;;;;;;5030219;28;20655;-68
2021/06/25 05:51:27;;;;;;;12.60;10.23;;;15.80;99.90;;;;;;5044869;28;20179;-68
2021/06/25 05:53:53;;;;;;;11.87;9.97;;;15.90;99.90;;;;;;5027961;28;20192;-68
2021/06/25 05:56:18;;;;;;;11.63;10.07;;;15.90;99.90;;;;;;5040294;28;20377;-69
2021/06/25 05:58:44;;;;;;;9.90;8.90;;;15.90;99.90;;;;;;5020985;28;20325;-68
2021/06/25 06:01:10;;;;;;;10.27;8.77;;;15.90;99.90;;;;;;5041914;28;20188;-68
2021/06/25 06:03:35;;;;;;;10.23;9.07;;;16.00;99.90;;;;;;5018172;28;20339;-68
2021/06/25 06:06:02;;;;;;;10.03;9.03;;;16.00;99.90;;;;;;5005447;28;20221;-68
2021/06/25 06:08:28;;;;;;;10.70;9.70;;;16.00;99.90;;;;;;5012961;28;20185;-69
2021/06/25 06:10:53;;;;;;;10.47;9.47;;;16.10;99.90;;;;;;5016352;28;20918;-68
2021/06/25 06:13:19;;;;;;;10.20;9.20;;;16.10;99.90;;;;;;5023757;28;20189;-68
2021/06/25 06:15:45;;;;;;;11.40;10.17;;;16.10;99.90;;;;;;5025450;28;20232;-68
2021/06/25 06:18:18;;;;;;;10.97;9.80;;;16.20;99.90;;;;;;5023450;28;20195;-68
2021/06/25 06:20:43;;;;;;;10.30;9.30;;;16.20;99.90;;;;;;5046532;28;20188;-68
2021/06/25 06:31:23;;;;;;;13.03;9.13;;;16.40;99.90;;;;;;5042270;28;20629;-69
2021/06/25 06:33:55;;;;;;;10.30;9.10;;;16.40;99.90;;;;;;5037886;28;20690;-69
2021/06/25 06:36:26;;;;;;;10.40;9.07;;;16.50;99.90;;;;;;5033941;28;20651;-68
2021/06/25 06:38:53;;;;;;;9.10;8.30;;;16.60;99.90;;;;;;5049101;28;21029;-69
2021/06/25 06:41:27;;;;;;;11.60;9.60;;;16.60;99.90;;;;;;5046238;28;20629;-68
2021/06/25 06:43:53;;;;;;;9.63;8.30;;;16.70;99.90;;;;;;5036671;28;20918;-68
2021/06/25 06:46:19;;;;;;;8.97;8.03;;;16.70;99.90;;;;;;5032818;28;20645;-68
2021/06/25 06:48:47;;;;;;;8.90;8.10;;;16.80;99.90;;;;;;5024287;28;20673;-68
2021/06/25 06:51:15;;;;;;;8.73;7.83;;;16.80;99.90;;;;;;5044983;28;20188;-68
2021/06/25 06:53:45;;;;;;;8.43;7.60;;;16.80;99.90;;;;;;5045354;28;20625;-68
2021/06/25 06:56:16;;;;;;;8.17;6.60;;;16.90;99.90;;;;;;5022157;28;21174;-68
2021/06/25 06:58:42;;;;;;;6.90;6.30;;;17.00;99.90;;;;;;5039893;28;20649;-68
2021/06/25 07:01:10;;;;;;;7.87;7.17;;;17.10;99.90;;;;;;5040967;28;20629;-68
2021/06/25 07:03:36;;;;;;;6.90;6.20;;;17.10;99.90;;;;;;5038506;28;20619;-68
2021/06/25 07:06:05;;;;;;;7.60;7.00;;;17.20;99.90;;;;;;5040980;28;20641;-68
2021/06/25 07:08:31;;;;;;;7.60;6.80;;;17.30;99.90;;;;;;5039210;28;20216;-68
2021/06/25 07:10:57;;;;;;;6.40;5.80;;;17.30;99.90;;;;;;5043915;28;20615;-68
2021/06/25 07:13:23;;;;;;;7.53;6.83;;;17.50;99.90;;;;;;5025453;28;20653;-68
2021/06/25 07:15:49;;;;;;;8.17;7.23;;;17.50;99.90;;;;;;5041503;28;20630;-68
2021/06/25 07:18:15;;;;;;;7.13;6.50;;;17.50;99.90;;;;;;5020462;28;21118;-68
2021/06/25 07:20:41;;;;;;;6.47;5.83;;;17.60;99.90;;;;;;5036670;28;20723;-69
2021/06/25 07:23:09;;;;;;;6.93;6.27;;;17.60;99.90;;;;;;5034023;28;20593;-68
2021/06/25 07:25:35;;;;;;;6.30;5.73;;;17.60;99.90;;;;;;5035807;28;20378;-68
2021/06/25 07:28:00;;;;;;;5.20;4.80;;;17.60;99.90;;;;;;5028207;28;21221;-68
2021/06/25 07:30:26;;;;;;;4.70;4.30;;;17.60;99.90;;;;;;5028413;28;20219;-69
2021/06/25 07:32:52;;;;;;;5.00;4.53;;;17.70;99.90;;;;;;5024008;28;20203;-68
2021/06/25 07:35:18;;;;;;;5.80;5.20;;;17.70;99.90;;;;;;5031116;28;20240;-68
2021/06/25 07:37:43;;;;;;;5.00;4.60;;;17.70;99.90;;;;;;5024258;28;20675;-68
2021/06/25 07:40:12;;;;;;;5.43;4.90;;;17.90;99.90;;;;;;5035107;28;20229;-69
2021/06/25 07:42:38;;;;;;;5.13;4.73;;;18.00;99.90;;;;;;5028084;28;20238;-68
2021/06/25 07:45:09;;;;;;;4.63;4.23;;;17.90;99.90;;;;;;5015079;28;21783;-68
2021/06/25 07:47:40;;;;;;;4.27;3.87;;;17.90;99.90;;;;;;5009552;28;20223;-69
2021/06/25 07:50:09;;;;;;;4.60;4.23;;;17.90;99.90;;;;;;5006405;28;20676;-69
2021/06/25 07:52:35;;;;;;;4.70;4.30;;;17.90;99.90;;;;;;5008166;28;20687;-69
2021/06/25 07:55:02;;;;;;;4.30;3.93;;;18.00;99.90;;;;;;5032760;28;20615;-69
2021/06/25 07:57:27;;;;;;;3.93;3.63;;;18.00;99.90;;;;;;5031920;28;21067;-69
2021/06/25 07:59:53;;;;;;;4.77;4.37;;;18.00;99.90;;;;;;5032892;28;21205;-68
2021/06/25 08:02:19;;;;;;;5.50;4.57;;;18.10;99.90;;;;;;5021184;28;20241;-68
2021/06/25 08:04:47;;;;;;;3.80;3.50;;;18.10;99.90;;;;;;5023048;28;20228;-68
2021/06/25 08:07:14;;;;;;;3.97;3.67;;;18.20;99.90;;;;;;5025490;28;20723;-69
2021/06/25 08:09:40;;;;;;;3.90;3.60;;;18.20;99.90;;;;;;5029283;28;20650;-69
2021/06/25 08:12:08;;;;;;;5.00;3.57;;;18.30;99.90;;;;;;5007985;28;20661;-69
2021/06/25 08:14:34;;;;;;;6.50;3.70;;;18.40;99.90;;;;;;5017825;28;21356;-69
2021/06/25 08:16:59;;;;;;;3.77;3.57;;;18.50;99.90;;;;;;5018142;28;20658;-69
2021/06/25 08:19:25;;;;;;;4.13;3.83;;;18.60;99.90;;;;;;5025787;28;20832;-68
2021/06/25 08:21:51;;;;;;;4.50;4.10;;;18.70;99.90;;;;;;5013611;28;20191;-69
2021/06/25 08:24:16;;;;;;;4.90;4.50;;;18.80;99.90;;;;;;5038808;28;20212;-68
2021/06/25 08:26:42;;;;;;;3.87;3.57;;;18.90;99.90;;;;;;5026120;28;20320;-69
2021/06/25 08:29:08;;;;;;;4.30;3.90;;;19.00;99.90;;;;;;5012165;28;20212;-67
2021/06/25 08:31:33;;;;;;;5.13;4.63;;;19.10;99.90;;;;;;5021908;28;20192;-67
2021/06/25 08:33:59;;;;;;;4.40;4.00;;;19.20;99.90;;;;;;5011083;28;20710;-68
2021/06/25 08:36:25;;;;;;;4.90;4.50;;;19.20;99.90;;;;;;5032790;28;20706;-68
2021/06/25 08:38:51;;;;;;;4.43;4.03;;;19.20;99.90;;;;;;5026327;28;20212;-68
2021/06/25 08:41:17;;;;;;;4.53;4.13;;;19.30;99.90;;;;;;5041298;28;20618;-68
2021/06/25 08:43:46;;;;;;;4.73;4.43;;;19.40;99.90;;;;;;5041719;28;20672;-68
2021/06/25 08:46:12;;;;;;;5.57;5.10;;;19.30;99.90;;;;;;5042705;28;20653;-69
2021/06/25 08:48:38;;;;;;;5.93;5.43;;;19.30;99.90;;;;;;5018659;28;21185;-68
2021/06/25 08:51:06;;;;;;;5.67;5.07;;;19.30;99.90;;;;;;5042510;28;20196;-68
2021/06/25 08:53:32;;;;;;;6.90;5.67;;;19.30;99.90;;;;;;5020077;28;20606;-68
2021/06/25 08:55:58;;;;;;;5.00;4.60;;;19.30;99.90;;;;;;5023242;28;20657;-68
2021/06/25 08:58:24;;;;;;;5.30;4.80;;;19.30;99.90;;;;;;5027988;28;20192;-68
2021/06/25 09:00:50;;;;;;;6.33;5.80;;;19.20;99.90;;;;;;5041883;28;20548;-68
2021/06/25 09:03:27;;;;;;;6.30;5.00;;;19.30;99.90;;;;;;5024299;28;20981;-68
2021/06/25 09:06:13;;;;;;;5.50;5.00;;;19.60;99.90;;;;;;5038034;28;21459;-70
2021/06/25 09:08:40;;;;;;;6.73;5.00;;;19.60;99.90;;;;;;5029407;28;20634;-68
2021/06/25 09:11:22;;;;;;;5.00;4.60;;;19.70;99.90;;;;;;5029553;28;20836;-68
2021/06/25 09:13:58;;;;;;;5.20;4.70;;;19.80;99.90;;;;;;5039782;28;20633;-69
2021/06/25 09:16:33;;;;;;;5.80;5.20;;;19.90;99.90;;;;;;5043299;28;20768;-68
2021/06/25 09:19:12;;;;;;;6.10;4.83;;;20.00;99.90;;;;;;5030250;28;20641;-67
2021/06/25 09:21:44;;;;;;;5.20;4.50;;;20.00;99.90;;;;;;5033557;28;20681;-68
2021/06/25 09:24:23;;;;;;;5.20;4.80;;;20.10;99.90;;;;;;5014812;28;21200;-69
2021/06/25 09:26:51;;;;;;;11.93;5.27;;;20.10;99.90;;;;;;5042641;28;20637;-69
2021/06/25 09:29:23;;;;;;;5.63;5.13;;;20.00;99.90;;;;;;5038638;28;20661;-68
2021/06/25 09:31:59;;;;;;;5.40;4.97;;;20.00;99.90;;;;;;5046607;28;20656;-68
2021/06/25 09:34:49;;;;;;;4.37;4.07;;;19.80;99.90;;;;;;5053729;28;20751;-68
2021/06/25 09:37:20;;;;;;;5.47;4.97;;;20.00;99.90;;;;;;5021134;28;21035;-68
2021/06/25 09:40:13;;;;;;;4.67;4.27;;;20.10;99.90;;;;;;5037344;28;20660;-68
2021/06/25 09:42:39;;;;;;;4.73;4.43;;;20.30;99.90;;;;;;5038555;28;20614;-68
2021/06/25 09:45:08;;;;;;;4.70;4.30;;;20.40;99.90;;;;;;5012395;28;21789;-69
2021/06/25 09:47:35;;;;;;;4.53;4.20;;;20.40;99.90;;;;;;5017616;28;20721;-68
2021/06/25 09:50:08;;;;;;;5.40;5.00;;;20.50;99.90;;;;;;4990817;28;20750;-69
2021/06/25 09:52:52;;;;;;;5.80;5.30;;;20.60;99.90;;;;;;5014535;28;21225;-69
2021/06/25 09:55:25;;;;;;;4.90;4.60;;;20.50;99.90;;;;;;5013949;28;20661;-69
2021/06/25 10:01:21;;;;;;;5.77;5.33;;;20.20;99.90;;;;;;5033458;28;20729;-68
2021/06/25 10:03:32;;;;;;;5.40;5.00;;;20.20;99.90;;;;;;5032825;28;20610;-68
2021/06/25 10:06:05;;;;;;;5.03;4.63;;;20.20;99.90;;;;;;5025276;28;20639;-68
2021/06/25 10:08:30;;;;;;;5.80;5.37;;;20.30;99.90;;;;;;5033101;28;20680;-68
2021/06/25 10:10:56;;;;;;;5.60;5.20;;;20.40;99.90;;;;;;5016597;28;21157;-68
2021/06/25 10:13:24;;;;;;;5.70;5.10;;;20.40;99.90;;;;;;5019330;28;20196;-68
2021/06/25 10:15:50;;;;;;;4.73;4.43;;;20.50;99.90;;;;;;5021862;28;20324;-68
2021/06/25 10:18:17;;;;;;;6.10;5.60;;;20.50;99.90;;;;;;5019129;28;20715;-68
2021/06/25 10:20:43;;;;;;;6.27;5.77;;;20.50;99.90;;;;;;4995264;28;22135;-68
2021/06/25 10:23:10;;;;;;;5.83;5.33;;;20.60;99.90;;;;;;5014549;28;20623;-68
2021/06/25 10:25:37;;;;;;;5.93;5.43;;;20.60;99.90;;;;;;5014857;28;21712;-68
2021/06/25 10:28:04;;;;;;;7.33;6.73;;;20.60;99.90;;;;;;5040965;28;20682;-68
2021/06/25 10:30:31;;;;;;;6.23;5.67;;;20.50;99.90;;;;;;5039351;28;20715;-68
2021/06/25 10:33:00;;;;;;;6.40;5.80;;;20.50;99.90;;;;;;5039212;28;20661;-68
2021/06/25 10:35:26;;;;;;;6.50;6.00;;;20.40;99.90;;;;;;5043699;28;20677;-69
2021/06/25 10:37:52;;;;;;;6.67;6.17;;;20.40;99.90;;;;;;5048538;28;20610;-69
2021/06/25 10:40:24;;;;;;;6.17;5.67;;;20.40;99.90;;;;;;5047331;28;20224;-71
2021/06/25 10:42:50;;;;;;;6.30;5.80;;;20.50;99.90;;;;;;5043377;28;20188;-68
2021/06/25 10:45:15;;;;;;;6.70;6.10;;;20.60;99.90;;;;;;5043649;28;20645;-68
2021/06/25 10:47:55;;;;;;;6.00;5.60;;;20.80;99.90;;;;;;5046396;28;20603;-69
2021/06/25 10:50:22;;;;;;;6.13;5.53;;;21.00;99.90;;;;;;5027146;28;20220;-68
2021/06/25 10:53:13;;;;;;;6.87;6.37;;;21.00;99.90;;;;;;5049613;28;20622;-68
2021/06/25 10:55:45;;;;;;;45.90;30.80;;;20.90;99.90;;;;;;5040035;28;21135;-68
2021/06/25 10:58:19;;;;;;;59.63;40.37;;;20.90;99.90;;;;;;5048397;28;20594;-69
2021/06/25 11:00:54;;;;;;;6.70;6.00;;;21.10;99.90;;;;;;5037598;28;20618;-69
2021/06/25 11:03:41;;;;;;;10.43;9.40;;;21.20;99.90;;;;;;5026812;28;20618;-68
2021/06/25 11:06:27;;;;;;;6.57;6.07;;;21.40;99.90;;;;;;5036848;28;21168;-69
2021/06/25 11:09:07;;;;;;;6.47;5.97;;;21.40;99.90;;;;;;5013901;28;20676;-68
2021/06/25 11:11:33;;;;;;;8.10;7.30;;;21.20;99.90;;;;;;5033268;28;20703;-71
2021/06/25 11:14:00;;;;;;;6.80;6.40;;;21.30;99.90;;;;;;5030107;28;20618;-68
2021/06/25 11:16:25;;;;;;;7.40;6.80;;;21.30;99.90;;;;;;5019784;28;20659;-68
2021/06/25 11:18:51;;;;;;;12.13;9.67;;;21.30;99.90;;;;;;4994386;28;20651;-71
2021/06/25 11:21:17;;;;;;;24.10;14.70;;;21.40;99.90;;;;;;5022712;28;20200;-70
2021/06/25 11:23:44;;;;;;;88.87;45.57;;;21.40;99.90;;;;;;5031457;28;20185;-70
2021/06/25 11:26:13;;;;;;;14.27;11.90;;;21.60;99.90;;;;;;5019180;28;20231;-68
2021/06/25 11:28:45;;;;;;;14.27;10.50;;;21.80;99.90;;;;;;5053488;28;20625;-70
2021/06/25 11:31:13;;;;;;;36.13;22.23;;;21.80;99.90;;;;;;5051970;28;20611;-69
2021/06/25 11:36:30;;;;;;;12.80;10.50;;;22.00;99.90;;;;;;5024201;28;20754;-68
2021/06/25 11:39:14;;;;;;;5.80;5.30;;;22.10;99.90;;;;;;5031374;28;20750;-68
2021/06/25 11:42:05;;;;;;;16.10;9.90;;;21.90;99.90;;;;;;5048750;28;20734;-68
2021/06/25 11:44:40;;;;;;;7.37;6.67;;;21.90;99.90;;;;;;5051714;28;20611;-71
2021/06/25 11:47:12;;;;;;;6.03;5.53;;;22.00;99.90;;;;;;5026850;28;20657;-70
2021/06/25 11:49:47;;;;;;;6.73;6.20;;;22.00;99.90;;;;;;5124718;22;20724;-67
2021/06/25 11:52:16;;;;;;;6.40;5.90;;;22.20;99.90;;;;;;5043781;28;20645;-67
2021/06/25 11:54:47;;;;;;;5.00;4.67;;;22.30;99.90;;;;;;5070572;28;20614;-65
2021/06/25 11:57:28;;;;;;;5.00;4.70;;;22.30;99.90;;;;;;5049103;28;20658;-66
2021/06/25 12:00:01;;;;;;;4.80;4.50;;;22.50;99.90;;;;;;5078764;28;20640;-67
2021/06/25 12:02:37;;;;;;;5.23;4.93;;;22.70;99.90;;;;;;5079622;28;21028;-67
2021/06/25 12:05:03;;;;;;;5.40;4.90;;;22.80;99.90;;;;;;5064526;28;20644;-66
2021/06/25 12:07:29;;;;;;;6.50;5.07;;;22.90;99.90;;;;;;5085239;28;20626;-69
2021/06/25 12:09:55;;;;;;;5.47;5.03;;;22.90;99.90;;;;;;5067918;28;20736;-69
2021/06/25 12:12:26;;;;;;;5.27;4.97;;;23.00;99.90;;;;;;5070191;28;20179;-66
2021/06/25 12:14:55;;;;;;;6.40;5.90;;;23.20;99.90;;;;;;5084603;28;20518;-67
2021/06/25 12:17:21;;;;;;;5.93;5.53;;;23.40;99.90;;;;;;5075964;28;20719;-68
2021/06/25 12:20:06;;;;;;;6.50;6.00;;;23.40;99.90;;;;;;5066376;28;20683;-70
2021/06/25 12:22:45;;;;;;;6.57;5.97;;;23.50;99.90;;;;;;5092087;28;20612;-68
2021/06/25 12:25:10;;;;;;;5.27;4.93;;;23.70;99.90;;;;;;5090195;28;20631;-65
2021/06/25 12:27:38;;;;;;;5.90;5.50;;;23.80;99.90;;;;;;5092468;28;20644;-67
2021/06/25 12:30:11;;;;;;;5.63;5.23;;;23.70;99.90;;;;;;5074424;28;20698;-69
2021/06/25 12:32:37;;;;;;;6.40;5.90;;;23.80;99.90;;;;;;5078046;28;20727;-69
2021/06/25 12:35:03;;;;;;;5.20;4.80;;;23.90;99.90;;;;;;5080249;28;20728;-68
2021/06/25 12:37:46;;;;;;;4.77;4.47;;;24.00;99.90;;;;;;5076843;28;20250;-70
2021/06/25 12:40:15;;;;;;;6.47;5.97;;;24.20;99.90;;;;;;5093103;28;21290;-72
2021/06/25 12:42:43;;;;;;;6.23;5.83;;;24.40;99.90;;;;;;5093080;28;20653;-71
2021/06/25 12:45:11;;;;;;;5.70;5.30;;;24.60;99.90;;;;;;5068147;28;20708;-66
2021/06/25 12:47:36;;;;;;;5.00;4.60;;;24.60;99.90;;;;;;5070183;28;20593;-66
2021/06/25 12:50:03;;;;;;;5.33;4.93;;;24.70;99.90;;;;;;5082158;28;20721;-66
2021/06/25 12:52:28;;;;;;;6.60;6.10;;;24.80;99.90;;;;;;5081929;28;20217;-67
2021/06/25 12:54:57;;;;;;;6.90;6.40;;;24.70;99.90;;;;;;5081369;28;20716;-67
2021/06/25 12:57:22;;;;;;;7.53;7.00;;;24.70;99.90;;;;;;5082395;28;20271;-66
2021/06/25 12:59:57;;;;;;;6.20;5.80;;;24.50;99.90;;;;;;5063022;28;20652;-67
2021/06/25 13:02:27;;;;;;;8.20;7.50;;;24.60;99.90;;;;;;5080374;28;20182;-67